sensor_id;sensor_type;location;lat;lon;timestamp;P1;durP1;ratioP1;P2;durP2;ratioP2
82511;SDS011;72152;65.012;25.464;2024-01-06T00:01:59;1.20;;;0.50;;
82511;SDS011;72152;65.012;25.464;2024-01-06T00:05:02;0.50;;;0.30;;
82511;SDS011;72152;65.012;25.464;2024-01-06T00:08:12;1.00;;;0.40;;
82511;SDS011;72152;65.012;25.464;2024-01-06T00:11:22;7.00;;;0.90;;
82511;SDS011;72152;65.012;25.464;2024-01-06T00:14:24;2.20;;;0.90;;
82511;SDS011;72152;65.012;25.464;2024-01-06T00:17:30;0.40;;;0.30;;
82511;SDS011;72152;65.012;25.464;2024-01-06T00:20:27;1.80;;;0.80;;
82511;SDS011;72152;65.012;25.464;2024-01-06T00:23:20;1.80;;;0.70;;
82511;SDS011;72152;65.012;25.464;2024-01-06T00:26:26;1.30;;;0.60;;
82511;SDS011;72152;65.012;25.464;2024-01-06T00:29:23;0.90;;;0.20;;
82511;SDS011;72152;65.012;25.464;2024-01-06T00:32:29;3.10;;;0.60;;
82511;SDS011;72152;65.012;25.464;2024-01-06T00:35:30;4.20;;;1.00;;
82511;SDS011;72152;65.012;25.464;2024-01-06T00:38:32;1.30;;;0.80;;
82511;SDS011;72152;65.012;25.464;2024-01-06T00:41:34;1.30;;;0.70;;
82511;SDS011;72152;65.012;25.464;2024-01-06T00:47:46;1.80;;;0.70;;
82511;SDS011;72152;65.012;25.464;2024-01-06T00:50:51;1.70;;;0.80;;
82511;SDS011;72152;65.012;25.464;2024-01-06T00:53:58;2.60;;;0.80;;
82511;SDS011;72152;65.012;25.464;2024-01-06T00:57:02;2.00;;;0.50;;
82511;SDS011;72152;65.012;25.464;2024-01-06T01:00:16;2.10;;;0.60;;
82511;SDS011;72152;65.012;25.464;2024-01-06T01:03:28;1.30;;;0.60;;
82511;SDS011;72152;65.012;25.464;2024-01-06T01:06:30;1.70;;;0.50;;
82511;SDS011;72152;65.012;25.464;2024-01-06T01:09:37;1.50;;;0.40;;
82511;SDS011;72152;65.012;25.464;2024-01-06T01:12:38;2.30;;;0.70;;
82511;SDS011;72152;65.012;25.464;2024-01-06T01:18:38;1.30;;;0.60;;
82511;SDS011;72152;65.012;25.464;2024-01-06T01:21:47;1.30;;;0.60;;
82511;SDS011;72152;65.012;25.464;2024-01-06T01:25:01;1.70;;;0.60;;
82511;SDS011;72152;65.012;25.464;2024-01-06T01:28:18;2.40;;;0.70;;
82511;SDS011;72152;65.012;25.464;2024-01-06T01:31:17;3.80;;;0.90;;
82511;SDS011;72152;65.012;25.464;2024-01-06T01:34:22;1.80;;;0.80;;
82511;SDS011;72152;65.012;25.464;2024-01-06T01:37:34;2.30;;;0.90;;
82511;SDS011;72152;65.012;25.464;2024-01-06T01:40:37;0.70;;;0.50;;
82511;SDS011;72152;65.012;25.464;2024-01-06T01:43:52;2.60;;;0.50;;
82511;SDS011;72152;65.012;25.464;2024-01-06T01:46:54;1.50;;;0.60;;
82511;SDS011;72152;65.012;25.464;2024-01-06T01:50:00;1.50;;;0.60;;
82511;SDS011;72152;65.012;25.464;2024-01-06T01:53:03;1.20;;;0.70;;
82511;SDS011;72152;65.012;25.464;2024-01-06T01:56:18;1.50;;;0.60;;
82511;SDS011;72152;65.012;25.464;2024-01-06T01:59:27;2.70;;;0.60;;
82511;SDS011;72152;65.012;25.464;2024-01-06T02:02:30;3.70;;;1.10;;
82511;SDS011;72152;65.012;25.464;2024-01-06T02:05:36;3.20;;;0.90;;
82511;SDS011;72152;65.012;25.464;2024-01-06T02:08:42;1.30;;;0.90;;
82511;SDS011;72152;65.012;25.464;2024-01-06T02:11:43;1.00;;;0.60;;
82511;SDS011;72152;65.012;25.464;2024-01-06T02:14:48;1.90;;;0.70;;
82511;SDS011;72152;65.012;25.464;2024-01-06T02:17:53;3.90;;;0.70;;
82511;SDS011;72152;65.012;25.464;2024-01-06T02:21:01;0.50;;;0.40;;
82511;SDS011;72152;65.012;25.464;2024-01-06T02:24:01;2.30;;;0.50;;
82511;SDS011;72152;65.012;25.464;2024-01-06T02:27:05;1.30;;;0.70;;
82511;SDS011;72152;65.012;25.464;2024-01-06T02:33:21;5.60;;;1.10;;
82511;SDS011;72152;65.012;25.464;2024-01-06T02:36:32;1.60;;;0.60;;
82511;SDS011;72152;65.012;25.464;2024-01-06T02:42:38;1.00;;;0.50;;
82511;SDS011;72152;65.012;25.464;2024-01-06T02:45:40;1.50;;;0.40;;
82511;SDS011;72152;65.012;25.464;2024-01-06T02:48:48;0.80;;;0.60;;
82511;SDS011;72152;65.012;25.464;2024-01-06T02:51:54;1.30;;;0.60;;
82511;SDS011;72152;65.012;25.464;2024-01-06T02:54:54;1.90;;;0.60;;
82511;SDS011;72152;65.012;25.464;2024-01-06T02:58:02;1.40;;;0.60;;
82511;SDS011;72152;65.012;25.464;2024-01-06T03:01:08;0.50;;;0.30;;
82511;SDS011;72152;65.012;25.464;2024-01-06T03:04:08;5.40;;;0.80;;
82511;SDS011;72152;65.012;25.464;2024-01-06T03:07:09;2.70;;;0.60;;
82511;SDS011;72152;65.012;25.464;2024-01-06T03:10:11;1.20;;;0.40;;
82511;SDS011;72152;65.012;25.464;2024-01-06T03:13:21;1.00;;;0.40;;
82511;SDS011;72152;65.012;25.464;2024-01-06T03:16:27;0.30;;;0.20;;
82511;SDS011;72152;65.012;25.464;2024-01-06T03:19:33;2.20;;;0.60;;
82511;SDS011;72152;65.012;25.464;2024-01-06T03:22:40;2.20;;;0.80;;
82511;SDS011;72152;65.012;25.464;2024-01-06T03:25:42;1.10;;;0.50;;
82511;SDS011;72152;65.012;25.464;2024-01-06T03:28:48;1.10;;;0.40;;
82511;SDS011;72152;65.012;25.464;2024-01-06T03:31:57;0.50;;;0.30;;
82511;SDS011;72152;65.012;25.464;2024-01-06T03:34:58;2.80;;;0.60;;
82511;SDS011;72152;65.012;25.464;2024-01-06T03:37:55;1.60;;;0.50;;
82511;SDS011;72152;65.012;25.464;2024-01-06T03:41:04;1.00;;;0.50;;
82511;SDS011;72152;65.012;25.464;2024-01-06T03:47:27;1.60;;;0.60;;
82511;SDS011;72152;65.012;25.464;2024-01-06T03:50:33;1.00;;;0.60;;
82511;SDS011;72152;65.012;25.464;2024-01-06T03:53:43;1.10;;;0.40;;
82511;SDS011;72152;65.012;25.464;2024-01-06T03:56:49;1.00;;;0.50;;
82511;SDS011;72152;65.012;25.464;2024-01-06T03:59:55;1.20;;;0.50;;
82511;SDS011;72152;65.012;25.464;2024-01-06T04:02:58;2.30;;;0.70;;
82511;SDS011;72152;65.012;25.464;2024-01-06T04:06:06;2.60;;;0.80;;
82511;SDS011;72152;65.012;25.464;2024-01-06T04:09:14;1.20;;;0.50;;
82511;SDS011;72152;65.012;25.464;2024-01-06T04:12:21;1.10;;;0.50;;
82511;SDS011;72152;65.012;25.464;2024-01-06T04:18:16;1.30;;;0.70;;
82511;SDS011;72152;65.012;25.464;2024-01-06T04:21:23;1.30;;;0.50;;
82511;SDS011;72152;65.012;25.464;2024-01-06T04:24:32;1.10;;;0.40;;
82511;SDS011;72152;65.012;25.464;2024-01-06T04:27:35;1.40;;;0.70;;
82511;SDS011;72152;65.012;25.464;2024-01-06T04:30:38;1.40;;;0.30;;
82511;SDS011;72152;65.012;25.464;2024-01-06T04:33:46;1.20;;;0.50;;
82511;SDS011;72152;65.012;25.464;2024-01-06T04:36:53;0.30;;;0.20;;
82511;SDS011;72152;65.012;25.464;2024-01-06T04:39:59;1.40;;;0.30;;
82511;SDS011;72152;65.012;25.464;2024-01-06T04:43:06;1.20;;;0.60;;
82511;SDS011;72152;65.012;25.464;2024-01-06T04:46:13;2.10;;;0.60;;
82511;SDS011;72152;65.012;25.464;2024-01-06T04:49:19;1.90;;;0.70;;
82511;SDS011;72152;65.012;25.464;2024-01-06T04:52:20;0.80;;;0.40;;
82511;SDS011;72152;65.012;25.464;2024-01-06T04:55:25;3.00;;;0.70;;
82511;SDS011;72152;65.012;25.464;2024-01-06T04:58:26;1.40;;;0.60;;
82511;SDS011;72152;65.012;25.464;2024-01-06T05:01:34;1.60;;;0.40;;
82511;SDS011;72152;65.012;25.464;2024-01-06T05:04:36;1.80;;;0.60;;
82511;SDS011;72152;65.012;25.464;2024-01-06T05:07:43;1.60;;;0.50;;
82511;SDS011;72152;65.012;25.464;2024-01-06T05:13:57;2.00;;;0.70;;
82511;SDS011;72152;65.012;25.464;2024-01-06T05:17:04;0.80;;;0.40;;
82511;SDS011;72152;65.012;25.464;2024-01-06T05:20:11;1.50;;;0.70;;
82511;SDS011;72152;65.012;25.464;2024-01-06T05:23:18;2.00;;;0.80;;
82511;SDS011;72152;65.012;25.464;2024-01-06T05:26:24;1.10;;;0.60;;
82511;SDS011;72152;65.012;25.464;2024-01-06T05:29:30;1.60;;;0.80;;
82511;SDS011;72152;65.012;25.464;2024-01-06T05:32:33;2.70;;;0.60;;
82511;SDS011;72152;65.012;25.464;2024-01-06T05:35:40;2.70;;;1.20;;
82511;SDS011;72152;65.012;25.464;2024-01-06T05:38:42;2.00;;;0.70;;
82511;SDS011;72152;65.012;25.464;2024-01-06T05:41:44;1.40;;;0.80;;
82511;SDS011;72152;65.012;25.464;2024-01-06T05:44:42;1.80;;;0.60;;
82511;SDS011;72152;65.012;25.464;2024-01-06T05:47:45;0.70;;;0.40;;
82511;SDS011;72152;65.012;25.464;2024-01-06T05:50:48;1.30;;;0.40;;
82511;SDS011;72152;65.012;25.464;2024-01-06T05:53:54;1.30;;;0.60;;
82511;SDS011;72152;65.012;25.464;2024-01-06T05:56:57;1.80;;;0.80;;
82511;SDS011;72152;65.012;25.464;2024-01-06T06:00:07;1.90;;;0.60;;
82511;SDS011;72152;65.012;25.464;2024-01-06T06:03:21;2.10;;;1.00;;
82511;SDS011;72152;65.012;25.464;2024-01-06T06:06:27;3.10;;;1.20;;
82511;SDS011;72152;65.012;25.464;2024-01-06T06:09:28;1.80;;;0.90;;
82511;SDS011;72152;65.012;25.464;2024-01-06T06:12:35;3.70;;;1.20;;
82511;SDS011;72152;65.012;25.464;2024-01-06T06:15:36;2.30;;;0.90;;
82511;SDS011;72152;65.012;25.464;2024-01-06T06:18:43;1.40;;;0.60;;
82511;SDS011;72152;65.012;25.464;2024-01-06T06:21:47;4.00;;;1.20;;
82511;SDS011;72152;65.012;25.464;2024-01-06T06:24:51;1.30;;;0.80;;
82511;SDS011;72152;65.012;25.464;2024-01-06T06:27:53;2.90;;;0.80;;
82511;SDS011;72152;65.012;25.464;2024-01-06T06:30:57;2.50;;;0.90;;
82511;SDS011;72152;65.012;25.464;2024-01-06T06:33:59;3.80;;;1.30;;
82511;SDS011;72152;65.012;25.464;2024-01-06T06:37:05;3.70;;;1.10;;
82511;SDS011;72152;65.012;25.464;2024-01-06T06:40:18;1.70;;;0.80;;
82511;SDS011;72152;65.012;25.464;2024-01-06T06:43:16;1.90;;;0.90;;
82511;SDS011;72152;65.012;25.464;2024-01-06T06:49:20;2.40;;;0.90;;
82511;SDS011;72152;65.012;25.464;2024-01-06T06:52:25;1.80;;;0.60;;
82511;SDS011;72152;65.012;25.464;2024-01-06T06:55:37;1.30;;;0.60;;
82511;SDS011;72152;65.012;25.464;2024-01-06T06:58:45;1.00;;;0.70;;
82511;SDS011;72152;65.012;25.464;2024-01-06T07:01:48;6.50;;;0.70;;
82511;SDS011;72152;65.012;25.464;2024-01-06T07:04:52;2.40;;;1.20;;
82511;SDS011;72152;65.012;25.464;2024-01-06T07:07:55;5.70;;;1.10;;
82511;SDS011;72152;65.012;25.464;2024-01-06T07:11:06;3.40;;;1.50;;
82511;SDS011;72152;65.012;25.464;2024-01-06T07:14:11;6.00;;;1.30;;
82511;SDS011;72152;65.012;25.464;2024-01-06T07:17:09;2.20;;;1.00;;
82511;SDS011;72152;65.012;25.464;2024-01-06T07:20:17;4.60;;;1.20;;
82511;SDS011;72152;65.012;25.464;2024-01-06T07:23:27;1.80;;;0.80;;
82511;SDS011;72152;65.012;25.464;2024-01-06T07:26:33;4.50;;;1.00;;
82511;SDS011;72152;65.012;25.464;2024-01-06T07:29:31;17.20;;;4.90;;
82511;SDS011;72152;65.012;25.464;2024-01-06T07:32:37;13.60;;;3.90;;
82511;SDS011;72152;65.012;25.464;2024-01-06T07:35:41;2.70;;;1.00;;
82511;SDS011;72152;65.012;25.464;2024-01-06T07:38:41;2.60;;;1.40;;
82511;SDS011;72152;65.012;25.464;2024-01-06T07:41:48;1.50;;;0.70;;
82511;SDS011;72152;65.012;25.464;2024-01-06T07:44:55;3.00;;;1.30;;
82511;SDS011;72152;65.012;25.464;2024-01-06T07:47:59;3.80;;;1.40;;
82511;SDS011;72152;65.012;25.464;2024-01-06T07:51:01;5.70;;;1.70;;
82511;SDS011;72152;65.012;25.464;2024-01-06T07:54:07;3.80;;;1.80;;
82511;SDS011;72152;65.012;25.464;2024-01-06T07:57:12;4.90;;;1.70;;
82511;SDS011;72152;65.012;25.464;2024-01-06T08:03:28;3.80;;;1.70;;
82511;SDS011;72152;65.012;25.464;2024-01-06T08:06:24;5.50;;;2.00;;
82511;SDS011;72152;65.012;25.464;2024-01-06T08:09:28;3.30;;;1.50;;
82511;SDS011;72152;65.012;25.464;2024-01-06T08:12:30;5.10;;;1.70;;
82511;SDS011;72152;65.012;25.464;2024-01-06T08:15:37;5.20;;;2.00;;
82511;SDS011;72152;65.012;25.464;2024-01-06T08:21:45;3.50;;;1.10;;
82511;SDS011;72152;65.012;25.464;2024-01-06T08:24:46;3.40;;;1.40;;
82511;SDS011;72152;65.012;25.464;2024-01-06T08:27:48;3.70;;;1.20;;
82511;SDS011;72152;65.012;25.464;2024-01-06T08:30:50;2.80;;;1.00;;
82511;SDS011;72152;65.012;25.464;2024-01-06T08:33:48;2.00;;;0.80;;
82511;SDS011;72152;65.012;25.464;2024-01-06T08:36:55;2.80;;;1.20;;
82511;SDS011;72152;65.012;25.464;2024-01-06T08:40:01;2.50;;;1.00;;
82511;SDS011;72152;65.012;25.464;2024-01-06T08:43:19;2.20;;;0.70;;
82511;SDS011;72152;65.012;25.464;2024-01-06T08:46:33;7.30;;;0.90;;
82511;SDS011;72152;65.012;25.464;2024-01-06T08:49:37;2.90;;;0.80;;
82511;SDS011;72152;65.012;25.464;2024-01-06T08:52:41;2.90;;;1.00;;
82511;SDS011;72152;65.012;25.464;2024-01-06T08:55:49;1.20;;;0.70;;
82511;SDS011;72152;65.012;25.464;2024-01-06T08:58:56;5.30;;;1.40;;
82511;SDS011;72152;65.012;25.464;2024-01-06T09:04:57;2.60;;;0.80;;
82511;SDS011;72152;65.012;25.464;2024-01-06T09:08:00;1.90;;;0.70;;
82511;SDS011;72152;65.012;25.464;2024-01-06T09:11:03;2.70;;;1.30;;
82511;SDS011;72152;65.012;25.464;2024-01-06T09:14:11;2.30;;;1.30;;
82511;SDS011;72152;65.012;25.464;2024-01-06T09:17:10;1.80;;;1.00;;
82511;SDS011;72152;65.012;25.464;2024-01-06T09:20:21;6.10;;;1.20;;
82511;SDS011;72152;65.012;25.464;2024-01-06T09:23:23;4.40;;;1.50;;
82511;SDS011;72152;65.012;25.464;2024-01-06T09:26:28;5.60;;;1.40;;
82511;SDS011;72152;65.012;25.464;2024-01-06T09:29:36;12.80;;;3.30;;
82511;SDS011;72152;65.012;25.464;2024-01-06T09:32:44;10.50;;;3.40;;
82511;SDS011;72152;65.012;25.464;2024-01-06T09:35:53;4.00;;;1.50;;
82511;SDS011;72152;65.012;25.464;2024-01-06T09:38:52;3.00;;;1.50;;
82511;SDS011;72152;65.012;25.464;2024-01-06T09:41:55;4.30;;;2.20;;
82511;SDS011;72152;65.012;25.464;2024-01-06T09:44:59;3.40;;;1.50;;
82511;SDS011;72152;65.012;25.464;2024-01-06T09:48:05;5.50;;;1.80;;
82511;SDS011;72152;65.012;25.464;2024-01-06T09:51:12;2.90;;;1.50;;
82511;SDS011;72152;65.012;25.464;2024-01-06T09:54:20;5.40;;;1.40;;
82511;SDS011;72152;65.012;25.464;2024-01-06T09:57:31;2.80;;;1.20;;
82511;SDS011;72152;65.012;25.464;2024-01-06T10:00:38;7.30;;;1.60;;
82511;SDS011;72152;65.012;25.464;2024-01-06T10:03:51;3.70;;;1.70;;
82511;SDS011;72152;65.012;25.464;2024-01-06T10:06:52;8.80;;;1.60;;
82511;SDS011;72152;65.012;25.464;2024-01-06T10:12:54;1.50;;;0.80;;
82511;SDS011;72152;65.012;25.464;2024-01-06T10:18:49;9.50;;;2.50;;
82511;SDS011;72152;65.012;25.464;2024-01-06T10:21:48;4.90;;;2.00;;
82511;SDS011;72152;65.012;25.464;2024-01-06T10:24:55;5.50;;;2.30;;
82511;SDS011;72152;65.012;25.464;2024-01-06T10:28:01;4.60;;;1.90;;
82511;SDS011;72152;65.012;25.464;2024-01-06T10:31:10;6.40;;;2.00;;
82511;SDS011;72152;65.012;25.464;2024-01-06T10:34:15;3.50;;;1.80;;
82511;SDS011;72152;65.012;25.464;2024-01-06T10:40:15;4.00;;;1.60;;
82511;SDS011;72152;65.012;25.464;2024-01-06T10:43:13;6.80;;;2.10;;
82511;SDS011;72152;65.012;25.464;2024-01-06T10:46:16;5.20;;;1.90;;
82511;SDS011;72152;65.012;25.464;2024-01-06T10:49:25;10.10;;;2.00;;
82511;SDS011;72152;65.012;25.464;2024-01-06T10:52:30;5.20;;;2.00;;
82511;SDS011;72152;65.012;25.464;2024-01-06T10:55:34;4.00;;;1.70;;
82511;SDS011;72152;65.012;25.464;2024-01-06T10:58:38;4.50;;;2.10;;
82511;SDS011;72152;65.012;25.464;2024-01-06T11:04:45;12.50;;;3.70;;
82511;SDS011;72152;65.012;25.464;2024-01-06T11:07:52;9.40;;;3.30;;
82511;SDS011;72152;65.012;25.464;2024-01-06T11:10:59;6.30;;;2.10;;
82511;SDS011;72152;65.012;25.464;2024-01-06T11:17:11;4.40;;;1.50;;
82511;SDS011;72152;65.012;25.464;2024-01-06T11:20:36;3.40;;;1.70;;
82511;SDS011;72152;65.012;25.464;2024-01-06T11:24:17;2.80;;;1.20;;
82511;SDS011;72152;65.012;25.464;2024-01-06T11:27:20;3.20;;;1.50;;
82511;SDS011;72152;65.012;25.464;2024-01-06T11:30:25;2.60;;;1.20;;
82511;SDS011;72152;65.012;25.464;2024-01-06T11:33:26;1.60;;;1.10;;
82511;SDS011;72152;65.012;25.464;2024-01-06T11:36:32;2.00;;;1.10;;
82511;SDS011;72152;65.012;25.464;2024-01-06T11:39:42;2.40;;;0.90;;
82511;SDS011;72152;65.012;25.464;2024-01-06T11:51:58;3.90;;;1.10;;
82511;SDS011;72152;65.012;25.464;2024-01-06T11:55:00;4.30;;;1.60;;
82511;SDS011;72152;65.012;25.464;2024-01-06T11:58:11;2.70;;;1.30;;
82511;SDS011;72152;65.012;25.464;2024-01-06T12:01:20;2.40;;;1.30;;
82511;SDS011;72152;65.012;25.464;2024-01-06T12:04:37;2.90;;;1.50;;
82511;SDS011;72152;65.012;25.464;2024-01-06T12:07:52;5.60;;;1.60;;
82511;SDS011;72152;65.012;25.464;2024-01-06T12:11:08;2.30;;;1.30;;
82511;SDS011;72152;65.012;25.464;2024-01-06T12:14:17;4.30;;;1.30;;
82511;SDS011;72152;65.012;25.464;2024-01-06T12:17:22;4.20;;;1.40;;
82511;SDS011;72152;65.012;25.464;2024-01-06T12:20:41;7.20;;;1.40;;
82511;SDS011;72152;65.012;25.464;2024-01-06T12:23:49;3.10;;;1.30;;
82511;SDS011;72152;65.012;25.464;2024-01-06T12:27:10;1.60;;;1.00;;
82511;SDS011;72152;65.012;25.464;2024-01-06T12:30:16;3.10;;;1.50;;
82511;SDS011;72152;65.012;25.464;2024-01-06T12:33:14;5.20;;;1.50;;
82511;SDS011;72152;65.012;25.464;2024-01-06T12:36:16;7.90;;;1.30;;
82511;SDS011;72152;65.012;25.464;2024-01-06T12:39:33;3.40;;;1.20;;
82511;SDS011;72152;65.012;25.464;2024-01-06T12:42:38;2.20;;;1.10;;
82511;SDS011;72152;65.012;25.464;2024-01-06T12:45:41;4.50;;;1.30;;
82511;SDS011;72152;65.012;25.464;2024-01-06T12:48:50;4.50;;;1.60;;
82511;SDS011;72152;65.012;25.464;2024-01-06T12:51:59;5.30;;;1.60;;
82511;SDS011;72152;65.012;25.464;2024-01-06T12:55:03;6.00;;;1.50;;
82511;SDS011;72152;65.012;25.464;2024-01-06T12:58:07;4.20;;;1.40;;
82511;SDS011;72152;65.012;25.464;2024-01-06T13:01:17;5.70;;;1.70;;
82511;SDS011;72152;65.012;25.464;2024-01-06T13:04:20;5.40;;;1.70;;
82511;SDS011;72152;65.012;25.464;2024-01-06T13:07:26;4.50;;;1.70;;
82511;SDS011;72152;65.012;25.464;2024-01-06T13:10:30;5.80;;;2.30;;
82511;SDS011;72152;65.012;25.464;2024-01-06T13:13:29;7.30;;;2.40;;
82511;SDS011;72152;65.012;25.464;2024-01-06T13:19:48;4.30;;;1.90;;
82511;SDS011;72152;65.012;25.464;2024-01-06T13:22:58;5.20;;;2.10;;
82511;SDS011;72152;65.012;25.464;2024-01-06T13:26:06;5.90;;;1.90;;
82511;SDS011;72152;65.012;25.464;2024-01-06T13:29:11;4.20;;;1.70;;
82511;SDS011;72152;65.012;25.464;2024-01-06T13:32:20;3.00;;;1.30;;
82511;SDS011;72152;65.012;25.464;2024-01-06T13:35:26;7.00;;;1.70;;
82511;SDS011;72152;65.012;25.464;2024-01-06T13:38:37;5.60;;;2.10;;
82511;SDS011;72152;65.012;25.464;2024-01-06T13:41:51;5.00;;;2.00;;
82511;SDS011;72152;65.012;25.464;2024-01-06T13:44:58;5.60;;;2.40;;
82511;SDS011;72152;65.012;25.464;2024-01-06T13:48:09;3.00;;;1.70;;
82511;SDS011;72152;65.012;25.464;2024-01-06T13:51:18;7.00;;;2.40;;
82511;SDS011;72152;65.012;25.464;2024-01-06T13:54:26;5.00;;;2.20;;
82511;SDS011;72152;65.012;25.464;2024-01-06T13:57:34;5.50;;;1.90;;
82511;SDS011;72152;65.012;25.464;2024-01-06T14:00:39;5.80;;;1.40;;
82511;SDS011;72152;65.012;25.464;2024-01-06T14:03:49;4.90;;;1.90;;
82511;SDS011;72152;65.012;25.464;2024-01-06T14:06:54;5.50;;;2.00;;
82511;SDS011;72152;65.012;25.464;2024-01-06T14:10:04;4.20;;;2.10;;
82511;SDS011;72152;65.012;25.464;2024-01-06T14:13:11;4.30;;;2.00;;
82511;SDS011;72152;65.012;25.464;2024-01-06T14:19:36;9.70;;;2.40;;
82511;SDS011;72152;65.012;25.464;2024-01-06T14:22:48;3.80;;;1.50;;
82511;SDS011;72152;65.012;25.464;2024-01-06T14:25:52;3.00;;;1.40;;
82511;SDS011;72152;65.012;25.464;2024-01-06T14:28:58;1.70;;;1.00;;
82511;SDS011;72152;65.012;25.464;2024-01-06T14:32:13;8.90;;;1.90;;
82511;SDS011;72152;65.012;25.464;2024-01-06T14:35:16;8.10;;;2.20;;
82511;SDS011;72152;65.012;25.464;2024-01-06T14:38:26;6.30;;;2.10;;
82511;SDS011;72152;65.012;25.464;2024-01-06T14:41:29;6.10;;;1.80;;
82511;SDS011;72152;65.012;25.464;2024-01-06T14:44:32;6.50;;;1.90;;
82511;SDS011;72152;65.012;25.464;2024-01-06T14:47:35;3.40;;;1.60;;
82511;SDS011;72152;65.012;25.464;2024-01-06T14:50:40;4.40;;;1.90;;
82511;SDS011;72152;65.012;25.464;2024-01-06T14:53:45;3.80;;;1.40;;
82511;SDS011;72152;65.012;25.464;2024-01-06T14:56:49;3.50;;;1.50;;
82511;SDS011;72152;65.012;25.464;2024-01-06T14:59:52;2.30;;;1.30;;
82511;SDS011;72152;65.012;25.464;2024-01-06T15:02:56;3.20;;;1.50;;
82511;SDS011;72152;65.012;25.464;2024-01-06T15:06:06;8.50;;;1.80;;
82511;SDS011;72152;65.012;25.464;2024-01-06T15:09:14;5.70;;;1.70;;
82511;SDS011;72152;65.012;25.464;2024-01-06T15:12:16;2.40;;;1.30;;
82511;SDS011;72152;65.012;25.464;2024-01-06T15:15:23;4.00;;;2.00;;
82511;SDS011;72152;65.012;25.464;2024-01-06T15:21:27;4.90;;;1.50;;
82511;SDS011;72152;65.012;25.464;2024-01-06T15:24:38;8.20;;;1.80;;
82511;SDS011;72152;65.012;25.464;2024-01-06T15:27:47;3.40;;;1.40;;
82511;SDS011;72152;65.012;25.464;2024-01-06T15:30:55;8.30;;;1.80;;
82511;SDS011;72152;65.012;25.464;2024-01-06T15:34:00;4.00;;;1.70;;
82511;SDS011;72152;65.012;25.464;2024-01-06T15:37:12;4.30;;;1.60;;
82511;SDS011;72152;65.012;25.464;2024-01-06T15:40:20;5.70;;;2.10;;
82511;SDS011;72152;65.012;25.464;2024-01-06T15:43:31;7.60;;;2.50;;
82511;SDS011;72152;65.012;25.464;2024-01-06T15:46:36;10.90;;;2.40;;
82511;SDS011;72152;65.012;25.464;2024-01-06T15:49:36;8.00;;;2.10;;
82511;SDS011;72152;65.012;25.464;2024-01-06T15:52:35;7.70;;;2.80;;
82511;SDS011;72152;65.012;25.464;2024-01-06T15:55:37;5.10;;;2.30;;
82511;SDS011;72152;65.012;25.464;2024-01-06T15:58:50;6.60;;;2.40;;
82511;SDS011;72152;65.012;25.464;2024-01-06T16:02:04;5.10;;;2.00;;
82511;SDS011;72152;65.012;25.464;2024-01-06T16:05:14;3.50;;;1.60;;
82511;SDS011;72152;65.012;25.464;2024-01-06T16:08:21;5.40;;;1.80;;
82511;SDS011;72152;65.012;25.464;2024-01-06T16:11:30;5.40;;;1.90;;
82511;SDS011;72152;65.012;25.464;2024-01-06T16:14:32;4.00;;;2.20;;
82511;SDS011;72152;65.012;25.464;2024-01-06T16:17:44;8.20;;;2.10;;
82511;SDS011;72152;65.012;25.464;2024-01-06T16:20:52;8.40;;;2.20;;
82511;SDS011;72152;65.012;25.464;2024-01-06T16:24:04;8.50;;;2.30;;
82511;SDS011;72152;65.012;25.464;2024-01-06T16:27:15;5.00;;;1.90;;
82511;SDS011;72152;65.012;25.464;2024-01-06T16:30:24;4.10;;;2.00;;
82511;SDS011;72152;65.012;25.464;2024-01-06T16:33:34;8.60;;;2.40;;
82511;SDS011;72152;65.012;25.464;2024-01-06T16:36:42;5.10;;;2.00;;
82511;SDS011;72152;65.012;25.464;2024-01-06T16:39:45;6.70;;;2.40;;
82511;SDS011;72152;65.012;25.464;2024-01-06T16:43:06;4.70;;;2.30;;
82511;SDS011;72152;65.012;25.464;2024-01-06T16:49:31;6.20;;;2.10;;
82511;SDS011;72152;65.012;25.464;2024-01-06T16:52:39;4.50;;;1.90;;
82511;SDS011;72152;65.012;25.464;2024-01-06T16:55:38;3.50;;;1.70;;
82511;SDS011;72152;65.012;25.464;2024-01-06T16:58:48;9.20;;;2.10;;
82511;SDS011;72152;65.012;25.464;2024-01-06T17:01:52;6.70;;;2.40;;
82511;SDS011;72152;65.012;25.464;2024-01-06T17:04:57;4.50;;;1.70;;
82511;SDS011;72152;65.012;25.464;2024-01-06T17:08:01;4.10;;;2.10;;
82511;SDS011;72152;65.012;25.464;2024-01-06T17:11:05;5.80;;;2.10;;
82511;SDS011;72152;65.012;25.464;2024-01-06T17:14:07;6.90;;;2.30;;
82511;SDS011;72152;65.012;25.464;2024-01-06T17:17:20;9.80;;;2.60;;
82511;SDS011;72152;65.012;25.464;2024-01-06T17:20:26;5.00;;;2.00;;
82511;SDS011;72152;65.012;25.464;2024-01-06T17:23:28;6.50;;;3.00;;
82511;SDS011;72152;65.012;25.464;2024-01-06T17:26:38;5.90;;;2.40;;
82511;SDS011;72152;65.012;25.464;2024-01-06T17:29:44;7.80;;;2.50;;
82511;SDS011;72152;65.012;25.464;2024-01-06T17:32:44;3.70;;;2.00;;
82511;SDS011;72152;65.012;25.464;2024-01-06T17:35:42;5.90;;;2.50;;
82511;SDS011;72152;65.012;25.464;2024-01-06T17:38:51;7.70;;;2.60;;
82511;SDS011;72152;65.012;25.464;2024-01-06T17:41:57;6.60;;;2.30;;
82511;SDS011;72152;65.012;25.464;2024-01-06T17:48:26;6.20;;;2.20;;
82511;SDS011;72152;65.012;25.464;2024-01-06T17:51:29;13.30;;;2.10;;
82511;SDS011;72152;65.012;25.464;2024-01-06T17:54:37;4.10;;;1.80;;
82511;SDS011;72152;65.012;25.464;2024-01-06T17:57:40;3.70;;;1.90;;
82511;SDS011;72152;65.012;25.464;2024-01-06T18:00:45;6.30;;;2.50;;
82511;SDS011;72152;65.012;25.464;2024-01-06T18:03:58;7.10;;;2.30;;
82511;SDS011;72152;65.012;25.464;2024-01-06T18:07:02;4.40;;;1.80;;
82511;SDS011;72152;65.012;25.464;2024-01-06T18:10:14;5.10;;;2.20;;
82511;SDS011;72152;65.012;25.464;2024-01-06T18:13:21;4.30;;;2.00;;
82511;SDS011;72152;65.012;25.464;2024-01-06T18:16:28;10.50;;;2.40;;
82511;SDS011;72152;65.012;25.464;2024-01-06T18:19:35;4.10;;;1.90;;
82511;SDS011;72152;65.012;25.464;2024-01-06T18:22:46;8.40;;;2.70;;
82511;SDS011;72152;65.012;25.464;2024-01-06T18:25:54;5.10;;;1.90;;
82511;SDS011;72152;65.012;25.464;2024-01-06T18:29:10;6.30;;;2.10;;
82511;SDS011;72152;65.012;25.464;2024-01-06T18:32:22;8.10;;;3.20;;
82511;SDS011;72152;65.012;25.464;2024-01-06T18:35:33;13.50;;;5.10;;
82511;SDS011;72152;65.012;25.464;2024-01-06T18:38:40;16.80;;;4.40;;
82511;SDS011;72152;65.012;25.464;2024-01-06T18:41:49;7.90;;;3.10;;
82511;SDS011;72152;65.012;25.464;2024-01-06T18:44:51;9.10;;;3.40;;
82511;SDS011;72152;65.012;25.464;2024-01-06T18:47:58;4.80;;;2.40;;
82511;SDS011;72152;65.012;25.464;2024-01-06T18:51:07;7.20;;;2.20;;
82511;SDS011;72152;65.012;25.464;2024-01-06T18:54:12;4.40;;;2.20;;
82511;SDS011;72152;65.012;25.464;2024-01-06T19:03:23;6.00;;;2.10;;
82511;SDS011;72152;65.012;25.464;2024-01-06T19:06:33;5.70;;;2.30;;
82511;SDS011;72152;65.012;25.464;2024-01-06T19:09:36;6.20;;;2.20;;
82511;SDS011;72152;65.012;25.464;2024-01-06T19:12:41;10.20;;;3.20;;
82511;SDS011;72152;65.012;25.464;2024-01-06T19:15:52;6.10;;;2.40;;
82511;SDS011;72152;65.012;25.464;2024-01-06T19:18:59;5.40;;;2.10;;
82511;SDS011;72152;65.012;25.464;2024-01-06T19:22:02;5.20;;;2.10;;
82511;SDS011;72152;65.012;25.464;2024-01-06T19:25:06;7.90;;;2.50;;
82511;SDS011;72152;65.012;25.464;2024-01-06T19:28:15;4.00;;;1.70;;
82511;SDS011;72152;65.012;25.464;2024-01-06T19:31:24;5.10;;;1.80;;
82511;SDS011;72152;65.012;25.464;2024-01-06T19:34:29;6.00;;;2.10;;
82511;SDS011;72152;65.012;25.464;2024-01-06T19:37:35;5.00;;;2.00;;
82511;SDS011;72152;65.012;25.464;2024-01-06T19:40:50;6.80;;;2.10;;
82511;SDS011;72152;65.012;25.464;2024-01-06T19:43:57;4.90;;;1.60;;